Decoded Metar for CYAT ( in ) (IATA:) | Meteo·Mobile Aviation Weather
aviador You're here:

CYAT Decoded Metar

in
Report Time2020-02-25 21:00:00
UTC Time2020-02-25 21:38:08
Flight Rules vfr VFR
Wind010° at 09 kt
W.Decomp.*RWY 06: 5.8 kt HW 6.9 kt LCW
Visibility9999 m
Phenomena:N/A
Clouds:N/A
Expected CloudBase > 2,400 ft AGL from Temp-Dew spread
CeilingNone
Temp-13°C
Dew Point-19°C (61% RH)
AAT-19.8°C
QNH1030 hPa
Raw Report
METAR CYAT 252100Z AUTO 01009KT 320V030 9SM CLR M13/M19 A3043 RMK SLP307=

Extra information for CYAT:More info

Social comments